Time;durP1;ratioP1;P1;durP2;ratioP2;P2;SDS_P1;SDS_P2;PMS_P1;PMS_P2;Temp;Humidity;BMP_temperature;BMP_pressure;BME280_temperature;BME280_humidity;BME280_pressure;Samples;Min_cycle;Max_cycle;Signal;HPM_P1;HPM_P2
2021/10/12 00:01:12;;;;;;;3.95;2.40;;;;;;;;;;5057403;28;20197;-90
2021/10/12 00:03:38;;;;;;;6.18;2.38;;;;;;;;;;5058412;28;20173;-88
2021/10/12 00:06:04;;;;;;;5.05;3.03;;;;;;;;;;5072372;28;20216;-88
2021/10/12 00:08:30;;;;;;;5.38;2.70;;;;;;;;;;5062072;28;20190;-88
2021/10/12 00:10:56;;;;;;;9.25;2.22;;;;;;;;;;5063030;28;20208;-89
2021/10/12 00:13:23;;;;;;;7.22;2.35;;;;;;;;;;5061557;28;20601;-89
2021/10/12 00:15:49;;;;;;;5.28;2.30;;;;;;;;;;5062594;28;20169;-89
2021/10/12 00:18:15;;;;;;;6.10;2.60;;;;;;;;;;5058848;28;20640;-88
2021/10/12 00:20:41;;;;;;;3.97;2.05;;;;;;;;;;5058985;28;20190;-89
2021/10/12 00:23:07;;;;;;;4.43;2.53;;;;;;;;;;5059999;28;20192;-88
2021/10/12 00:25:33;;;;;;;6.53;1.90;;;;;;;;;;5061172;28;20219;-89
2021/10/12 00:27:59;;;;;;;5.82;2.90;;;;;;;;;;5057635;28;20185;-89
2021/10/12 00:30:25;;;;;;;5.90;2.28;;;;;;;;;;5057636;28;20205;-89
2021/10/12 00:32:51;;;;;;;6.03;2.58;;;;;;;;;;5060824;28;20581;-89
2021/10/12 00:35:17;;;;;;;2.60;1.95;;;;;;;;;;5056517;28;20201;-88
2021/10/12 00:37:43;;;;;;;3.67;2.50;;;;;;;;;;5064177;28;20550;-88
2021/10/12 00:40:09;;;;;;;4.43;2.60;;;;;;;;;;5061291;28;20192;-88
2021/10/12 00:42:36;;;;;;;5.55;2.33;;;;;;;;;;5056089;28;20186;-89
2021/10/12 00:45:03;;;;;;;6.47;2.45;;;;;;;;;;5062600;28;20250;-88
2021/10/12 00:47:29;;;;;;;3.60;2.30;;;;;;;;;;5061275;28;20190;-88
2021/10/12 00:49:55;;;;;;;3.88;1.83;;;;;;;;;;5061461;28;20239;-88
2021/10/12 00:52:21;;;;;;;5.72;2.45;;;;;;;;;;5060883;28;20185;-88
2021/10/12 00:54:47;;;;;;;5.35;2.60;;;;;;;;;;5056663;28;20208;-88
2021/10/12 00:57:14;;;;;;;7.82;2.70;;;;;;;;;;5059304;28;20193;-88
2021/10/12 00:59:40;;;;;;;4.43;1.83;;;;;;;;;;5073591;28;20189;-88
2021/10/12 01:02:07;;;;;;;3.05;2.28;;;;;;;;;;5058125;28;20184;-87
2021/10/12 01:04:33;;;;;;;4.10;1.90;;;;;;;;;;5058514;28;20691;-87
2021/10/12 01:06:59;;;;;;;3.65;1.90;;;;;;;;;;5056377;28;20213;-89
2021/10/12 01:09:25;;;;;;;4.35;2.13;;;;;;;;;;5056861;28;20182;-89
2021/10/12 01:11:51;;;;;;;5.97;2.35;;;;;;;;;;5061919;28;20212;-89
2021/10/12 01:14:17;;;;;;;4.40;2.10;;;;;;;;;;5058870;28;20189;-87
2021/10/12 01:16:43;;;;;;;4.80;2.78;;;;;;;;;;5070734;28;20179;-88
2021/10/12 01:19:09;;;;;;;4.68;1.80;;;;;;;;;;5056981;28;20177;-88
2021/10/12 01:22:01;;;;;;;2.05;1.85;;;;;;;;;;5056362;28;20196;-88
2021/10/12 01:24:27;;;;;;;8.90;2.47;;;;;;;;;;5046675;28;20201;-88
2021/10/12 01:26:54;;;;;;;4.55;2.25;;;;;;;;;;5072289;28;20570;-87
2021/10/12 01:29:20;;;;;;;3.67;2.00;;;;;;;;;;5056373;28;20190;-88
2021/10/12 01:31:46;;;;;;;3.05;1.92;;;;;;;;;;5070667;28;20181;-86
2021/10/12 01:34:18;;;;;;;2.30;2.05;;;;;;;;;;5069810;28;20193;-88
2021/10/12 01:36:44;;;;;;;2.65;1.70;;;;;;;;;;5056334;28;20185;-87
2021/10/12 01:39:10;;;;;;;4.10;1.90;;;;;;;;;;5049425;28;20181;-88
2021/10/12 01:41:36;;;;;;;4.10;1.95;;;;;;;;;;5057282;28;20194;-86
2021/10/12 01:44:03;;;;;;;4.88;1.88;;;;;;;;;;5059859;28;20225;-87
2021/10/12 01:46:29;;;;;;;6.28;2.03;;;;;;;;;;5069939;28;20177;-89
2021/10/12 01:48:55;;;;;;;3.03;1.70;;;;;;;;;;5051303;28;20185;-89
2021/10/12 01:51:21;;;;;;;4.75;2.10;;;;;;;;;;5058171;28;20235;-89
2021/10/12 01:53:47;;;;;;;3.38;1.65;;;;;;;;;;5058986;28;20185;-89
2021/10/12 01:56:13;;;;;;;2.80;2.20;;;;;;;;;;5057351;28;20255;-88
2021/10/12 01:58:39;;;;;;;3.13;1.75;;;;;;;;;;5058265;28;20177;-89
2021/10/12 02:01:05;;;;;;;3.63;2.05;;;;;;;;;;5057282;28;20268;-89
2021/10/12 02:03:31;;;;;;;4.63;2.28;;;;;;;;;;5058237;28;20196;-88
2021/10/12 02:05:57;;;;;;;5.57;1.73;;;;;;;;;;5050828;28;20212;-89
2021/10/12 02:08:23;;;;;;;4.85;2.08;;;;;;;;;;5055002;28;20204;-88
2021/10/12 02:10:50;;;;;;;1.60;1.50;;;;;;;;;;5058467;28;20200;-88
2021/10/12 02:13:16;;;;;;;3.00;1.73;;;;;;;;;;5055709;28;20185;-89
2021/10/12 02:15:42;;;;;;;4.82;2.00;;;;;;;;;;5053672;28;20181;-88
2021/10/12 02:18:08;;;;;;;4.10;1.80;;;;;;;;;;5059186;28;20244;-88
2021/10/12 02:20:34;;;;;;;3.28;1.70;;;;;;;;;;5071571;28;20186;-89
2021/10/12 02:23:00;;;;;;;5.63;1.70;;;;;;;;;;5062487;28;20240;-87
2021/10/12 02:25:26;;;;;;;2.28;1.65;;;;;;;;;;5065644;28;20180;-87
2021/10/12 02:27:52;;;;;;;8.57;2.08;;;;;;;;;;5058862;28;20197;-89
2021/10/12 02:30:18;;;;;;;3.70;2.53;;;;;;;;;;5061706;28;20273;-89
2021/10/12 02:32:44;;;;;;;3.72;1.77;;;;;;;;;;5061791;28;20191;-89
2021/10/12 02:35:10;;;;;;;3.38;1.60;;;;;;;;;;5064564;28;20232;-89
2021/10/12 02:37:36;;;;;;;2.03;1.60;;;;;;;;;;5060421;28;20180;-88
2021/10/12 02:40:02;;;;;;;4.28;1.50;;;;;;;;;;5061062;28;20643;-88
2021/10/12 02:42:28;;;;;;;2.40;1.33;;;;;;;;;;5062432;28;20219;-88
2021/10/12 02:44:54;;;;;;;4.35;1.70;;;;;;;;;;5059376;28;20229;-88
2021/10/12 02:47:20;;;;;;;2.72;1.90;;;;;;;;;;5058358;28;20640;-88
2021/10/12 02:49:46;;;;;;;4.30;2.15;;;;;;;;;;5065894;28;20193;-88
2021/10/12 02:52:12;;;;;;;3.95;1.90;;;;;;;;;;5064854;28;20181;-88
2021/10/12 02:54:38;;;;;;;3.30;1.70;;;;;;;;;;5059284;28;20177;-87
2021/10/12 02:57:04;;;;;;;3.83;1.77;;;;;;;;;;5060531;28;20190;-89
2021/10/12 02:59:30;;;;;;;2.60;1.40;;;;;;;;;;5063402;28;20443;-88
2021/10/12 03:01:56;;;;;;;2.90;1.53;;;;;;;;;;5062207;28;20511;-86
2021/10/12 03:04:22;;;;;;;3.67;1.90;;;;;;;;;;5058979;28;20912;-85
2021/10/12 03:06:48;;;;;;;9.57;2.03;;;;;;;;;;5065494;28;20457;-87
2021/10/12 03:09:14;;;;;;;2.13;1.40;;;;;;;;;;5061402;28;20447;-89
2021/10/12 03:11:40;;;;;;;4.07;1.70;;;;;;;;;;5077715;28;20459;-89
2021/10/12 03:14:06;;;;;;;2.63;1.90;;;;;;;;;;5056565;28;20173;-87
2021/10/12 03:16:32;;;;;;;4.33;1.67;;;;;;;;;;5059573;28;20169;-89
2021/10/12 03:18:58;;;;;;;2.88;1.80;;;;;;;;;;5062084;28;20855;-88
2021/10/12 03:21:31;;;;;;;4.13;1.92;;;;;;;;;;5059853;28;20208;-88
2021/10/12 03:23:57;;;;;;;2.45;1.50;;;;;;;;;;5074833;28;20300;-88
2021/10/12 03:26:23;;;;;;;2.90;1.73;;;;;;;;;;5056936;28;20193;-89
2021/10/12 03:28:49;;;;;;;3.10;1.83;;;;;;;;;;5065539;28;20492;-87
2021/10/12 03:31:15;;;;;;;2.47;2.07;;;;;;;;;;5057735;28;20470;-88
2021/10/12 03:33:41;;;;;;;3.10;1.97;;;;;;;;;;5056235;28;20508;-88
2021/10/12 03:36:16;;;;;;;2.80;1.60;;;;;;;;;;5061886;28;20440;-87
2021/10/12 03:38:42;;;;;;;5.85;1.95;;;;;;;;;;5075101;28;20498;-88
2021/10/12 03:41:08;;;;;;;3.13;2.28;;;;;;;;;;5060001;28;20260;-88
2021/10/12 03:43:35;;;;;;;4.40;1.92;;;;;;;;;;5063722;28;20261;-88
2021/10/12 03:46:01;;;;;;;2.42;1.80;;;;;;;;;;5064904;28;20192;-88
2021/10/12 03:48:27;;;;;;;3.45;1.40;;;;;;;;;;5059725;28;20224;-86
2021/10/12 03:50:53;;;;;;;2.80;1.90;;;;;;;;;;5073591;28;20213;-88
2021/10/12 03:53:19;;;;;;;6.57;2.10;;;;;;;;;;5056520;28;20213;-88
2021/10/12 03:55:45;;;;;;;5.18;2.28;;;;;;;;;;5064523;28;20404;-88
2021/10/12 03:58:11;;;;;;;2.92;1.50;;;;;;;;;;5060434;28;20216;-88
2021/10/12 04:00:37;;;;;;;4.15;1.50;;;;;;;;;;5057808;28;20186;-88
2021/10/12 04:03:03;;;;;;;1.70;1.33;;;;;;;;;;5061242;28;20211;-88
2021/10/12 04:05:29;;;;;;;5.85;1.75;;;;;;;;;;5072853;28;20213;-88
2021/10/12 04:07:55;;;;;;;4.28;1.90;;;;;;;;;;5060121;28;20177;-88
2021/10/12 04:10:20;;;;;;;2.20;1.70;;;;;;;;;;5056826;28;20205;-88
2021/10/12 04:12:46;;;;;;;2.30;1.73;;;;;;;;;;5058198;28;20189;-89
2021/10/12 04:15:12;;;;;;;4.30;2.20;;;;;;;;;;5060561;28;20177;-88
2021/10/12 04:17:38;;;;;;;4.15;1.92;;;;;;;;;;5074570;28;20181;-87
2021/10/12 04:20:05;;;;;;;1.65;1.52;;;;;;;;;;5058961;28;20256;-87
2021/10/12 04:22:31;;;;;;;2.72;1.60;;;;;;;;;;5058584;28;20181;-88
2021/10/12 04:24:57;;;;;;;2.63;2.03;;;;;;;;;;5058522;28;20220;-85
2021/10/12 04:27:23;;;;;;;3.47;2.35;;;;;;;;;;5057214;28;20193;-88
2021/10/12 04:29:49;;;;;;;2.47;1.75;;;;;;;;;;5059439;28;20219;-88
2021/10/12 04:32:15;;;;;;;3.97;2.63;;;;;;;;;;5058725;28;20715;-88
2021/10/12 04:34:41;;;;;;;2.03;1.50;;;;;;;;;;5059121;28;20183;-88
2021/10/12 04:37:07;;;;;;;3.25;1.73;;;;;;;;;;5060782;28;20241;-88
2021/10/12 04:39:33;;;;;;;3.75;1.92;;;;;;;;;;5060474;28;20188;-88
2021/10/12 04:42:01;;;;;;;3.70;1.85;;;;;;;;;;5062286;28;20200;-89
2021/10/12 04:44:27;;;;;;;2.88;1.70;;;;;;;;;;5071976;28;20221;-88
2021/10/12 04:46:53;;;;;;;2.67;1.95;;;;;;;;;;5063381;28;20181;-87
2021/10/12 04:49:19;;;;;;;3.88;1.73;;;;;;;;;;5055060;28;20193;-88
2021/10/12 04:51:45;;;;;;;3.50;1.92;;;;;;;;;;5057448;28;20205;-88
2021/10/12 04:54:11;;;;;;;3.72;2.00;;;;;;;;;;5058644;28;20212;-88
2021/10/12 04:56:37;;;;;;;2.13;1.27;;;;;;;;;;5057056;28;20182;-87
2021/10/12 04:59:04;;;;;;;6.95;1.50;;;;;;;;;;5063615;28;20260;-88
2021/10/12 05:01:30;;;;;;;3.33;1.95;;;;;;;;;;5060682;28;20180;-88
2021/10/12 05:03:56;;;;;;;3.67;2.33;;;;;;;;;;5055962;28;20196;-88
2021/10/12 05:06:22;;;;;;;2.75;1.70;;;;;;;;;;5057255;28;20182;-87
2021/10/12 05:08:48;;;;;;;2.35;1.63;;;;;;;;;;5074180;28;20252;-88
2021/10/12 05:11:14;;;;;;;8.60;2.00;;;;;;;;;;5058095;28;20205;-87
2021/10/12 05:13:40;;;;;;;4.35;2.05;;;;;;;;;;5057769;28;20177;-89
2021/10/12 05:16:11;;;;;;;4.20;1.95;;;;;;;;;;5060315;28;20180;-89
2021/10/12 05:18:39;;;;;;;2.58;1.80;;;;;;;;;;5059840;28;20177;-89
2021/10/12 05:21:05;;;;;;;3.70;2.28;;;;;;;;;;5050904;28;20217;-89
2021/10/12 05:23:31;;;;;;;2.88;1.85;;;;;;;;;;5071225;28;20182;-88
2021/10/12 05:25:58;;;;;;;4.10;1.90;;;;;;;;;;5068981;28;20169;-86
2021/10/12 05:28:24;;;;;;;3.80;1.73;;;;;;;;;;5057062;28;20982;-89
2021/10/12 05:30:50;;;;;;;2.47;1.90;;;;;;;;;;5056244;28;20244;-89
2021/10/12 05:33:18;;;;;;;4.22;2.40;;;;;;;;;;5059358;28;20181;-88
2021/10/12 05:35:44;;;;;;;4.55;1.80;;;;;;;;;;5073503;28;20185;-88
2021/10/12 05:38:10;;;;;;;5.05;1.92;;;;;;;;;;5057618;28;20256;-88
2021/10/12 05:40:36;;;;;;;5.40;2.65;;;;;;;;;;5057098;28;20169;-88
2021/10/12 05:43:02;;;;;;;3.95;2.22;;;;;;;;;;5058953;28;20185;-88
2021/10/12 05:45:28;;;;;;;3.00;2.20;;;;;;;;;;5057028;28;20197;-88
2021/10/12 05:47:54;;;;;;;4.53;2.40;;;;;;;;;;5071285;28;20538;-87
2021/10/12 05:50:20;;;;;;;4.25;1.77;;;;;;;;;;5053879;28;20244;-88
2021/10/12 05:55:45;;;;;;;8.90;2.72;;;;;;;;;;5055742;28;20264;-88
2021/10/12 05:58:13;;;;;;;3.38;3.08;;;;;;;;;;5059681;28;20277;-89
2021/10/12 06:00:39;;;;;;;4.38;2.60;;;;;;;;;;5057940;28;20640;-87
2021/10/12 06:03:05;;;;;;;4.47;2.50;;;;;;;;;;5060673;28;20247;-88
2021/10/12 06:05:31;;;;;;;4.63;2.30;;;;;;;;;;5071344;28;20442;-88
2021/10/12 06:07:57;;;;;;;3.65;2.22;;;;;;;;;;5058679;28;20249;-85
2021/10/12 06:10:23;;;;;;;7.20;2.67;;;;;;;;;;5058171;28;20224;-88
2021/10/12 06:12:50;;;;;;;5.20;2.45;;;;;;;;;;5054755;28;20194;-89
2021/10/12 06:15:16;;;;;;;4.82;3.30;;;;;;;;;;5057188;28;20184;-89
2021/10/12 06:17:42;;;;;;;4.53;2.13;;;;;;;;;;5056915;28;20237;-89
2021/10/12 06:20:08;;;;;;;4.78;2.13;;;;;;;;;;5056239;28;20213;-88
2021/10/12 06:22:34;;;;;;;3.75;2.72;;;;;;;;;;5060653;28;20185;-86
2021/10/12 06:25:00;;;;;;;9.15;2.65;;;;;;;;;;5059612;28;20215;-88
2021/10/12 06:27:26;;;;;;;5.72;2.40;;;;;;;;;;5059880;28;20185;-89
2021/10/12 06:29:52;;;;;;;4.75;2.60;;;;;;;;;;5058960;28;20192;-88
2021/10/12 06:32:18;;;;;;;5.72;3.90;;;;;;;;;;5056677;28;20201;-87
2021/10/12 06:34:44;;;;;;;4.05;2.72;;;;;;;;;;5061388;28;20187;-87
2021/10/12 06:37:10;;;;;;;5.15;2.60;;;;;;;;;;5053686;28;20188;-88
2021/10/12 06:39:36;;;;;;;6.47;4.80;;;;;;;;;;5058835;28;20216;-87
2021/10/12 06:42:02;;;;;;;3.80;2.60;;;;;;;;;;5059639;28;20938;-88
2021/10/12 06:44:28;;;;;;;4.25;2.60;;;;;;;;;;5075284;28;20229;-88
2021/10/12 06:46:54;;;;;;;3.53;2.97;;;;;;;;;;5060487;28;20180;-87
2021/10/12 06:49:21;;;;;;;5.75;3.28;;;;;;;;;;5055788;28;20820;-87
2021/10/12 06:51:47;;;;;;;2.75;2.55;;;;;;;;;;5057539;28;20209;-86
2021/10/12 06:54:13;;;;;;;3.57;2.80;;;;;;;;;;5058507;28;20208;-85
2021/10/12 06:56:39;;;;;;;4.75;3.30;;;;;;;;;;5072945;28;20949;-90
2021/10/12 06:59:05;;;;;;;4.28;3.10;;;;;;;;;;5054542;28;20177;-89
2021/10/12 07:01:31;;;;;;;8.10;3.72;;;;;;;;;;5049961;28;20182;-86
2021/10/12 07:03:57;;;;;;;4.95;3.30;;;;;;;;;;5049806;28;20194;-86
2021/10/12 07:06:23;;;;;;;7.57;3.73;;;;;;;;;;5053535;28;20275;-85
2021/10/12 07:08:49;;;;;;;7.60;4.20;;;;;;;;;;5077870;28;20451;-86
2021/10/12 07:11:15;;;;;;;5.07;3.53;;;;;;;;;;5058916;28;20219;-87
2021/10/12 07:13:41;;;;;;;4.80;3.87;;;;;;;;;;5063558;28;20423;-86
2021/10/12 07:16:07;;;;;;;6.07;4.38;;;;;;;;;;5060998;28;20864;-85
2021/10/12 07:18:33;;;;;;;5.20;3.80;;;;;;;;;;5054518;28;20193;-86
2021/10/12 07:20:59;;;;;;;4.18;3.78;;;;;;;;;;5060817;28;20443;-83
2021/10/12 07:23:25;;;;;;;4.63;3.80;;;;;;;;;;5060053;28;20197;-85
2021/10/12 07:25:51;;;;;;;5.10;4.20;;;;;;;;;;5061722;28;20443;-85
2021/10/12 07:28:17;;;;;;;7.13;3.70;;;;;;;;;;5072146;28;20605;-86
2021/10/12 07:30:43;;;;;;;6.32;4.28;;;;;;;;;;5059772;28;20236;-85
2021/10/12 07:33:09;;;;;;;4.82;3.80;;;;;;;;;;5061027;28;20219;-85
2021/10/12 07:35:35;;;;;;;6.13;4.13;;;;;;;;;;5058426;28;20370;-84
2021/10/12 07:38:01;;;;;;;6.20;3.85;;;;;;;;;;5059659;28;20443;-85
2021/10/12 07:40:27;;;;;;;5.00;4.10;;;;;;;;;;5060853;28;20181;-87
2021/10/12 07:42:53;;;;;;;5.55;4.60;;;;;;;;;;5055822;28;20332;-86
2021/10/12 07:45:19;;;;;;;4.67;4.03;;;;;;;;;;5051403;28;20233;-86
2021/10/12 07:47:45;;;;;;;8.07;5.47;;;;;;;;;;5053902;28;20443;-86
2021/10/12 07:50:11;;;;;;;7.90;6.03;;;;;;;;;;5063312;28;20207;-84
2021/10/12 07:52:37;;;;;;;6.03;4.63;;;;;;;;;;5060855;28;20165;-86
2021/10/12 07:57:33;;;;;;;6.07;5.10;;;;;;;;;;5062297;28;20486;-86
2021/10/12 07:59:59;;;;;;;7.35;5.10;;;;;;;;;;5062690;28;20549;-87
2021/10/12 08:02:25;;;;;;;7.88;6.47;;;;;;;;;;5057642;28;20197;-85
2021/10/12 08:04:51;;;;;;;7.60;6.25;;;;;;;;;;5060478;28;20173;-86
2021/10/12 08:07:17;;;;;;;8.17;6.47;;;;;;;;;;5057084;28;20189;-85
2021/10/12 08:09:43;;;;;;;12.75;6.85;;;;;;;;;;5058269;28;20440;-87
2021/10/12 08:12:09;;;;;;;9.00;7.32;;;;;;;;;;5061678;28;20181;-86
2021/10/12 08:14:42;;;;;;;8.60;6.38;;;;;;;;;;5070930;28;20265;-87
2021/10/12 08:17:08;;;;;;;10.02;6.32;;;;;;;;;;5058733;28;20212;-87
2021/10/12 08:19:34;;;;;;;11.25;7.10;;;;;;;;;;5057500;28;20173;-88
2021/10/12 08:22:01;;;;;;;10.95;6.72;;;;;;;;;;5059986;28;20246;-86
2021/10/12 08:24:27;;;;;;;11.35;6.10;;;;;;;;;;5063430;28;20185;-87
2021/10/12 08:26:54;;;;;;;8.57;6.35;;;;;;;;;;5062315;28;20280;-87
2021/10/12 08:29:20;;;;;;;7.65;6.57;;;;;;;;;;5057880;28;20185;-86
2021/10/12 08:31:46;;;;;;;9.95;7.50;;;;;;;;;;5063581;28;20197;-87
2021/10/12 08:34:13;;;;;;;7.65;6.30;;;;;;;;;;5055257;28;20177;-87
2021/10/12 08:36:40;;;;;;;9.65;6.78;;;;;;;;;;5056908;28;20675;-88
2021/10/12 08:39:07;;;;;;;8.00;6.50;;;;;;;;;;5059701;28;20256;-88
2021/10/12 08:41:37;;;;;;;8.45;6.05;;;;;;;;;;5057264;28;20186;-84
2021/10/12 08:44:03;;;;;;;6.68;6.03;;;;;;;;;;5057610;28;20243;-85
2021/10/12 08:46:29;;;;;;;9.80;7.28;;;;;;;;;;5063448;28;20180;-87
2021/10/12 08:48:59;;;;;;;7.85;5.80;;;;;;;;;;5055953;28;20190;-86
2021/10/12 08:51:25;;;;;;;7.68;6.60;;;;;;;;;;5061137;28;20288;-87
2021/10/12 08:53:51;;;;;;;9.70;6.30;;;;;;;;;;5060718;28;20245;-87
2021/10/12 08:56:17;;;;;;;9.73;7.60;;;;;;;;;;5057542;28;20200;-85
2021/10/12 08:58:43;;;;;;;8.88;6.97;;;;;;;;;;5061409;28;20465;-85
2021/10/12 09:01:10;;;;;;;8.73;7.68;;;;;;;;;;5060638;28;20188;-83
2021/10/12 09:06:22;;;;;;;10.82;6.50;;;;;;;;;;5049929;28;20189;-86
2021/10/12 09:08:48;;;;;;;8.93;6.57;;;;;;;;;;5073920;28;20454;-86
2021/10/12 09:11:21;;;;;;;8.02;5.40;;;;;;;;;;5057587;28;20229;-86
2021/10/12 09:13:48;;;;;;;7.93;5.93;;;;;;;;;;5054567;28;20232;-88
2021/10/12 09:16:15;;;;;;;6.88;4.90;;;;;;;;;;5057073;28;20181;-85
2021/10/12 09:18:47;;;;;;;8.98;4.85;;;;;;;;;;5051431;28;20185;-86
2021/10/12 09:21:17;;;;;;;8.55;4.65;;;;;;;;;;5057393;28;20212;-85
2021/10/12 09:23:43;;;;;;;9.20;4.70;;;;;;;;;;5051197;28;20192;-84
2021/10/12 09:26:20;;;;;;;10.18;4.25;;;;;;;;;;5058914;28;20181;-83
2021/10/12 09:28:46;;;;;;;6.72;3.80;;;;;;;;;;5061148;28;20581;-85
2021/10/12 09:31:12;;;;;;;7.28;3.70;;;;;;;;;;5068160;28;20436;-84
2021/10/12 09:33:46;;;;;;;12.83;4.60;;;;;;;;;;5053743;28;20189;-85
2021/10/12 09:36:26;;;;;;;7.90;3.92;;;;;;;;;;5052040;28;20432;-84
2021/10/12 09:38:52;;;;;;;8.27;3.90;;;;;;;;;;5076552;28;20658;-86
2021/10/12 09:41:18;;;;;;;12.48;4.75;;;;;;;;;;5052030;28;20286;-85
2021/10/12 09:43:44;;;;;;;6.07;4.15;;;;;;;;;;5053803;28;20698;-85
2021/10/12 09:46:26;;;;;;;8.23;4.80;;;;;;;;;;5052002;28;20196;-84
2021/10/12 09:48:52;;;;;;;10.32;4.20;;;;;;;;;;5053391;28;20967;-85
2021/10/12 09:51:18;;;;;;;7.40;4.78;;;;;;;;;;5056580;28;20271;-87
2021/10/12 09:53:45;;;;;;;9.80;4.88;;;;;;;;;;5058536;28;20181;-84
2021/10/12 09:56:11;;;;;;;7.22;5.10;;;;;;;;;;5056715;28;20669;-85
2021/10/12 09:58:38;;;;;;;7.18;4.55;;;;;;;;;;5056737;28;20176;-87
2021/10/12 10:01:06;;;;;;;9.13;5.03;;;;;;;;;;5058035;28;20550;-83
2021/10/12 10:03:32;;;;;;;9.85;5.18;;;;;;;;;;5056414;28;20177;-82
2021/10/12 10:06:00;;;;;;;10.15;4.95;;;;;;;;;;5063443;28;20190;-83
2021/10/12 10:08:29;;;;;;;11.93;4.25;;;;;;;;;;5059644;28;20247;-84
2021/10/12 10:10:56;;;;;;;8.65;6.53;;;;;;;;;;5059925;28;20207;-83
2021/10/12 10:13:22;;;;;;;10.50;4.78;;;;;;;;;;5058429;28;20240;-84
2021/10/12 10:15:49;;;;;;;9.05;4.82;;;;;;;;;;5055965;28;20204;-85
2021/10/12 10:18:17;;;;;;;9.48;4.35;;;;;;;;;;5058751;28;20197;-85
2021/10/12 10:20:43;;;;;;;9.93;5.13;;;;;;;;;;5060052;28;20215;-88
2021/10/12 10:23:09;;;;;;;10.00;5.93;;;;;;;;;;5060223;28;20181;-86
2021/10/12 10:25:40;;;;;;;10.55;5.25;;;;;;;;;;5059585;28;20187;-83
2021/10/12 10:28:19;;;;;;;9.05;4.97;;;;;;;;;;5057156;28;20185;-83
2021/10/12 10:30:49;;;;;;;15.40;5.10;;;;;;;;;;5058457;28;20204;-85
2021/10/12 10:33:27;;;;;;;6.68;4.63;;;;;;;;;;5057333;28;20189;-86
2021/10/12 10:36:00;;;;;;;11.13;5.45;;;;;;;;;;5057390;28;20308;-85
2021/10/12 10:38:28;;;;;;;13.45;7.50;;;;;;;;;;5052783;28;20182;-87
2021/10/12 10:41:03;;;;;;;14.23;4.70;;;;;;;;;;5059465;28;20227;-86
2021/10/12 10:43:51;;;;;;;6.60;4.90;;;;;;;;;;5057383;28;20213;-84
2021/10/12 10:46:35;;;;;;;8.25;4.60;;;;;;;;;;5059272;28;20253;-90
2021/10/12 10:49:11;;;;;;;8.02;5.25;;;;;;;;;;5057380;28;20675;-87
2021/10/12 10:52:07;;;;;;;14.70;4.45;;;;;;;;;;5060794;28;20205;-87
2021/10/12 10:54:47;;;;;;;5.75;4.05;;;;;;;;;;5051879;28;20191;-85
2021/10/12 10:57:20;;;;;;;8.07;3.85;;;;;;;;;;5052468;28;20173;-81
2021/10/12 11:00:09;;;;;;;9.43;4.88;;;;;;;;;;5061317;28;20196;-89
2021/10/12 11:02:35;;;;;;;5.40;3.85;;;;;;;;;;5075504;28;20193;-86
2021/10/12 11:05:01;;;;;;;9.00;3.22;;;;;;;;;;5065583;28;20222;-86
2021/10/12 11:07:27;;;;;;;9.07;3.70;;;;;;;;;;5074736;28;20181;-85
2021/10/12 11:09:54;;;;;;;9.40;3.90;;;;;;;;;;5061760;28;20897;-87
2021/10/12 11:12:24;;;;;;;7.35;3.33;;;;;;;;;;5055887;28;20192;-86
2021/10/12 11:14:51;;;;;;;10.02;4.30;;;;;;;;;;5054093;28;20200;-89
2021/10/12 11:17:17;;;;;;;8.77;3.78;;;;;;;;;;5055547;28;20188;-88
2021/10/12 11:20:03;;;;;;;8.07;4.17;;;;;;;;;;5060984;28;20184;-82
2021/10/12 11:22:29;;;;;;;7.47;4.38;;;;;;;;;;5057160;28;20450;-86
2021/10/12 11:24:57;;;;;;;5.65;3.60;;;;;;;;;;5051029;28;20188;-85
2021/10/12 11:27:23;;;;;;;6.78;3.67;;;;;;;;;;5060936;28;20181;-91
2021/10/12 11:30:05;;;;;;;7.13;3.93;;;;;;;;;;5054127;28;20200;-91
2021/10/12 11:32:31;;;;;;;8.32;3.35;;;;;;;;;;5070555;28;20454;-86
2021/10/12 11:35:03;;;;;;;9.03;3.97;;;;;;;;;;5061186;28;20183;-87
2021/10/12 11:37:29;;;;;;;3.65;2.55;;;;;;;;;;5060972;28;20428;-89
2021/10/12 11:40:12;;;;;;;8.43;3.33;;;;;;;;;;5060239;28;20227;-85
2021/10/12 11:42:41;;;;;;;4.25;3.20;;;;;;;;;;5051143;28;20478;-89
2021/10/12 11:45:07;;;;;;;5.15;2.50;;;;;;;;;;5069240;28;20224;-88
2021/10/12 11:47:33;;;;;;;6.13;2.75;;;;;;;;;;5059073;28;20189;-87
2021/10/12 11:50:07;;;;;;;5.40;2.70;;;;;;;;;;5062406;28;20183;-83
2021/10/12 11:52:33;;;;;;;9.02;2.95;;;;;;;;;;5060091;28;20704;-87
2021/10/12 11:55:06;;;;;;;5.27;2.57;;;;;;;;;;5055715;28;20186;-87
2021/10/12 11:57:32;;;;;;;5.55;2.92;;;;;;;;;;5057903;28;20946;-86
2021/10/12 11:59:58;;;;;;;5.00;2.40;;;;;;;;;;5058796;28;20290;-87
2021/10/12 12:02:24;;;;;;;4.40;2.40;;;;;;;;;;5058106;28;20434;-85
2021/10/12 12:04:51;;;;;;;4.93;3.42;;;;;;;;;;5061048;28;20181;-88
2021/10/12 12:07:17;;;;;;;6.05;2.72;;;;;;;;;;5057247;28;20203;-87
2021/10/12 12:09:46;;;;;;;4.28;2.70;;;;;;;;;;5058919;28;20216;-88
2021/10/12 12:12:13;;;;;;;4.90;2.80;;;;;;;;;;5061941;28;20211;-86
2021/10/12 12:14:39;;;;;;;7.15;2.97;;;;;;;;;;5071025;28;20267;-91
2021/10/12 12:17:08;;;;;;;5.45;2.60;;;;;;;;;;5058368;28;20176;-89
2021/10/12 12:19:40;;;;;;;5.53;2.80;;;;;;;;;;5063836;28;20580;-88
2021/10/12 12:22:14;;;;;;;5.82;2.45;;;;;;;;;;5056542;28;20268;-89
2021/10/12 12:24:52;;;;;;;2.88;1.90;;;;;;;;;;5056918;28;20182;-88
2021/10/12 12:27:18;;;;;;;4.88;2.65;;;;;;;;;;5049659;28;20184;-85
2021/10/12 12:29:44;;;;;;;5.37;2.60;;;;;;;;;;5058587;28;20205;-88
2021/10/12 12:32:13;;;;;;;4.53;2.28;;;;;;;;;;5052100;28;20475;-86
2021/10/12 12:34:41;;;;;;;10.73;2.05;;;;;;;;;;5052019;28;20166;-87
2021/10/12 12:37:07;;;;;;;4.82;2.28;;;;;;;;;;5058196;28;20177;-87
2021/10/12 12:39:36;;;;;;;5.72;2.90;;;;;;;;;;5056603;28;20738;-91
2021/10/12 12:42:04;;;;;;;3.90;2.22;;;;;;;;;;5059773;28;20474;-89
2021/10/12 12:44:30;;;;;;;2.97;1.77;;;;;;;;;;5069483;28;20227;-85
2021/10/12 12:46:58;;;;;;;4.35;2.22;;;;;;;;;;5058587;28;20185;-91
2021/10/12 12:49:24;;;;;;;5.90;2.58;;;;;;;;;;5057261;28;20216;-85
2021/10/12 12:51:50;;;;;;;4.97;2.03;;;;;;;;;;5068512;28;20216;-87
2021/10/12 12:54:34;;;;;;;4.35;2.40;;;;;;;;;;5057832;28;20177;-85
2021/10/12 12:57:17;;;;;;;4.57;2.00;;;;;;;;;;5062485;28;20181;-83
2021/10/12 12:59:45;;;;;;;3.88;1.92;;;;;;;;;;5052981;28;20244;-88
2021/10/12 13:02:21;;;;;;;2.03;1.88;;;;;;;;;;5057659;28;20165;-86
2021/10/12 13:04:47;;;;;;;4.88;2.30;;;;;;;;;;5052733;28;20212;-89
2021/10/12 13:07:14;;;;;;;6.25;2.53;;;;;;;;;;5051419;28;20189;-82
2021/10/12 13:09:41;;;;;;;7.00;3.05;;;;;;;;;;5054857;28;20234;-90
2021/10/12 13:12:07;;;;;;;5.00;2.60;;;;;;;;;;5060286;28;20196;-83
2021/10/12 13:14:33;;;;;;;2.65;1.88;;;;;;;;;;5066903;28;20429;-88
2021/10/12 13:17:01;;;;;;;7.95;2.47;;;;;;;;;;5060360;28;20181;-86
2021/10/12 13:19:27;;;;;;;4.78;2.30;;;;;;;;;;5062600;28;20181;-88
2021/10/12 13:21:54;;;;;;;2.93;2.13;;;;;;;;;;5057858;28;20196;-88
2021/10/12 13:24:20;;;;;;;5.57;2.20;;;;;;;;;;5054594;28;20431;-87
2021/10/12 13:26:46;;;;;;;6.53;2.65;;;;;;;;;;5053236;28;20523;-87
2021/10/12 13:29:12;;;;;;;4.03;2.92;;;;;;;;;;5050320;28;20541;-88
2021/10/12 13:31:38;;;;;;;3.75;2.55;;;;;;;;;;5060166;28;20239;-86
2021/10/12 13:34:05;;;;;;;8.38;4.22;;;;;;;;;;5057290;28;20185;-86
2021/10/12 13:36:31;;;;;;;4.50;2.55;;;;;;;;;;5057988;28;20268;-85
2021/10/12 13:38:57;;;;;;;6.90;2.55;;;;;;;;;;5054560;28;20178;-83
2021/10/12 13:41:23;;;;;;;5.53;2.50;;;;;;;;;;5072631;28;20196;-87
2021/10/12 13:43:49;;;;;;;7.60;2.25;;;;;;;;;;5049758;28;20480;-86
2021/10/12 13:46:15;;;;;;;5.63;1.83;;;;;;;;;;5057164;28;20185;-86
2021/10/12 13:48:41;;;;;;;3.10;1.93;;;;;;;;;;5057194;28;20192;-87
2021/10/12 13:51:11;;;;;;;6.22;1.98;;;;;;;;;;5059246;28;20470;-85
2021/10/12 13:53:38;;;;;;;2.63;1.60;;;;;;;;;;5050248;28;20174;-88
2021/10/12 13:56:05;;;;;;;5.65;2.33;;;;;;;;;;5055531;28;20235;-84
2021/10/12 13:58:31;;;;;;;5.53;2.30;;;;;;;;;;5061076;28;20173;-89
2021/10/12 14:00:57;;;;;;;4.88;2.20;;;;;;;;;;5053924;28;20260;-89
2021/10/12 14:03:23;;;;;;;3.70;2.10;;;;;;;;;;5057053;28;20186;-88
2021/10/12 14:05:49;;;;;;;4.20;1.70;;;;;;;;;;5070987;28;20194;-89
2021/10/12 14:08:15;;;;;;;3.40;1.80;;;;;;;;;;5060429;28;20481;-86
2021/10/12 14:10:40;;;;;;;6.03;1.87;;;;;;;;;;5059346;28;20471;-86
2021/10/12 14:13:06;;;;;;;8.60;2.50;;;;;;;;;;5053128;28;20920;-90
2021/10/12 14:15:33;;;;;;;7.18;2.78;;;;;;;;;;5057804;28;20435;-89
2021/10/12 14:17:59;;;;;;;3.97;1.77;;;;;;;;;;5058315;28;20226;-87
2021/10/12 14:20:25;;;;;;;5.68;2.20;;;;;;;;;;5054128;28;20197;-88
2021/10/12 14:22:53;;;;;;;7.25;2.42;;;;;;;;;;5062082;28;20173;-85
2021/10/12 14:25:19;;;;;;;4.47;2.45;;;;;;;;;;5055217;28;20597;-86
2021/10/12 14:27:46;;;;;;;3.55;1.90;;;;;;;;;;5054934;28;20212;-86
2021/10/12 14:30:12;;;;;;;4.60;2.13;;;;;;;;;;5054408;28;20257;-85
2021/10/12 14:32:38;;;;;;;7.13;2.15;;;;;;;;;;5056082;28;20185;-83
2021/10/12 14:35:04;;;;;;;4.70;2.47;;;;;;;;;;5057295;28;20180;-90
2021/10/12 14:37:33;;;;;;;3.13;2.17;;;;;;;;;;5059703;28;20176;-88
2021/10/12 14:39:59;;;;;;;4.75;1.92;;;;;;;;;;5058144;28;20186;-88
2021/10/12 14:42:26;;;;;;;5.00;2.63;;;;;;;;;;5055453;28;20185;-89
2021/10/12 14:44:52;;;;;;;3.00;2.00;;;;;;;;;;5057599;28;20572;-92
2021/10/12 14:47:18;;;;;;;2.38;2.17;;;;;;;;;;5058974;28;20646;-91
2021/10/12 14:49:44;;;;;;;3.40;1.87;;;;;;;;;;5059262;28;20177;-85
2021/10/12 14:52:10;;;;;;;5.20;2.70;;;;;;;;;;5055535;28;20527;-88